Hauptseite
METAR-TAF:

METAR-TAF

Flughäfen :

Irkutsk, Russland

Flughafen Irkutsk

Breite: 52-16N, Länge: 104-19E, Höhe: 513 m

Beobachtung

Neuester Wetterbericht von vor 19 Minuten, um 21:30 UTC
Wind 2 kt aus West/Nordwest
Temperatur -13°C
Luftfeuchtigkeit 85%
Luftdruck 1025 hPa
Sichtweite: 0200 m
Gefrierender Nebel

METAR: UIII 252130Z 30001MPS 5000 0200S FZFG NSC M13/M15 Q1025 R30/490535 NOSIG RMK QFE723/0965

Zeit: 05:49 (21:49 UTC)

Prognose

Neuester Wetterbericht von vor 1 Stunde und 49 Minuten, um 20:00 UTC
Gültige Prognose vom 25 um 21 UTC bis 26 um 21 UTC
Wind 6 kt aus West/Nordwest
Sichtweite 10 km oder mehr
Zeitweise
vom 25 um 21 UTC bis 26 um 01 UTC
Sichtweite: 0500 m
in der Höhe von 200 ft
Gefrierender Nebel

TAF: UIII 252000Z 2521/2621 30003MPS 9999 NSC TEMPO 2521/2601 0500 FZFG VV002

Wetterbeobachtungen und Prognosen von mehr als 4000 Flughäfen (METAR und TAF Bericht).

Die verfügbaren Stationen werden durch gelbe und rote Markierungen auf der Karte dargestellt.

Führen Sie die Maus auf sie, um den Namen der Station zu sehen.

Darauf klicken, um die Beobachtung von Wetterbeobachtungen und Prognosen zu sehen.

Um die Karte zu ändern : klicken Sie auf den grünen Tasten mit einem schwarzen Kreuz Zum Vergrößern, auf den grünen Button mit einem Gedankenstrich zu verkleinern, oder auf die grünen Pfeile für benachbarte Karten.


METAR-TAF: